Time;durP1;ratioP1;P1;durP2;ratioP2;P2;SDS_P1;SDS_P2;PMS_P1;PMS_P2;Temp;Humidity;BMP_temperature;BMP_pressure;BME280_temperature;BME280_humidity;BME280_pressure;Samples;Min_cycle;Max_cycle;Signal;HPM_P1;HPM_P2
2021/12/31 00:00:02;;;;;;;1999.90;714.88;;;14.50;99.90;;;;;;5128590;27;20057;-80
2021/12/31 00:02:27;;;;;;;1999.90;755.17;;;13.60;99.90;;;;;;5127408;27;20074;-80
2021/12/31 00:04:55;;;;;;;1999.90;749.60;;;13.30;99.90;;;;;;5108032;27;20109;-82
2021/12/31 00:07:21;;;;;;;;;;;14.60;99.90;;;;;;5128585;27;20124;-81
2021/12/31 00:09:47;;;;;;;1999.90;999.90;;;13.70;99.90;;;;;;5129064;27;19983;-80
2021/12/31 00:12:13;;;;;;;1999.90;811.30;;;14.50;99.90;;;;;;5127746;27;20441;-80
2021/12/31 00:14:39;;;;;;;1999.90;999.90;;;13.60;99.90;;;;;;5125163;27;20043;-86
2021/12/31 00:17:05;;;;;;;1999.90;987.38;;;13.20;99.90;;;;;;5132639;27;20182;-78
2021/12/31 00:19:35;;;;;;;1999.90;687.17;;;14.30;99.90;;;;;;5145947;27;20491;-78
2021/12/31 00:22:15;;;;;;;1999.90;999.90;;;13.40;99.90;;;;;;5127431;27;20057;-78
2021/12/31 00:24:41;;;;;;;1999.90;999.90;;;14.30;99.90;;;;;;5128060;27;20522;-79
2021/12/31 00:27:07;;;;;;;1999.90;933.95;;;13.30;99.90;;;;;;5116713;27;20039;-79
2021/12/31 00:29:32;;;;;;;1999.90;563.70;;;14.10;99.90;;;;;;5144091;27;20130;-85
2021/12/31 00:31:58;;;;;;;1999.90;999.90;;;13.90;99.90;;;;;;5129383;27;20104;-80
2021/12/31 00:34:24;;;;;;;1999.90;999.90;;;13.20;99.90;;;;;;5111595;27;20054;-79
2021/12/31 00:36:49;;;;;;;1999.90;999.90;;;13.50;99.90;;;;;;5128129;27;20047;-85
2021/12/31 00:39:15;;;;;;;1999.90;999.90;;;14.30;99.90;;;;;;5094245;27;20043;-78
2021/12/31 00:41:42;;;;;;;1999.90;999.90;;;13.40;99.90;;;;;;5142358;27;20050;-85
2021/12/31 00:44:08;;;;;;;1999.90;989.63;;;14.20;99.90;;;;;;5129397;27;20096;-78
2021/12/31 00:46:34;;;;;;;1999.90;999.90;;;13.40;99.90;;;;;;5126423;27;20059;-78
2021/12/31 00:49:02;;;;;;;1999.90;925.38;;;13.90;99.90;;;;;;5144362;27;20058;-80
2021/12/31 00:51:28;;;;;;;1999.90;999.90;;;14.00;99.90;;;;;;5131595;27;20396;-81
2021/12/31 00:53:53;;;;;;;1999.90;999.90;;;13.80;99.90;;;;;;5126022;27;20035;-79
2021/12/31 00:56:19;;;;;;;1999.90;985.78;;;13.80;99.90;;;;;;5124512;27;20057;-81
2021/12/31 00:58:46;;;;;;;1999.90;692.75;;;13.70;99.90;;;;;;5123556;27;20074;-79
2021/12/31 01:01:17;;;;;;;1999.90;994.88;;;12.90;99.90;;;;;;5121197;27;20043;-79
2021/12/31 01:03:43;;;;;;;1999.90;999.90;;;12.70;99.90;;;;;;5123304;27;20456;-80
2021/12/31 01:06:08;;;;;;;1999.90;987.53;;;14.30;99.90;;;;;;5126331;27;20077;-79
2021/12/31 01:08:34;;;;;;;1999.90;999.90;;;13.10;99.90;;;;;;5126758;27;20135;-79
2021/12/31 01:11:00;;;;;;;1999.90;999.90;;;14.30;99.90;;;;;;5126202;27;20524;-79
2021/12/31 01:13:34;;;;;;;1999.90;646.80;;;12.70;99.90;;;;;;5128822;27;20130;-80
2021/12/31 01:16:02;;;;;;;1691.13;932.28;;;12.60;99.90;;;;;;5130941;27;20517;-78
2021/12/31 01:19:45;;;;;;;1999.90;768.15;;;12.70;99.90;;;;;;5129830;27;20039;-83
2021/12/31 01:21:17;;;;;;;1999.90;866.90;;;13.20;99.90;;;;;;5119659;27;20127;-83
2021/12/31 01:23:43;;;;;;;1999.90;974.33;;;14.50;99.90;;;;;;5128195;27;20142;-87
2021/12/31 01:26:09;;;;;;;1999.90;920.90;;;13.50;99.90;;;;;;5129367;27;20043;-81
2021/12/31 01:28:36;;;;;;;1999.90;873.15;;;13.80;99.90;;;;;;5128152;27;20119;-80
2021/12/31 01:31:03;;;;;;;1999.90;915.60;;;12.50;99.90;;;;;;5109155;27;20050;-78
2021/12/31 01:33:28;;;;;;;1999.90;717.20;;;13.70;99.90;;;;;;5126632;27;20105;-78
2021/12/31 01:35:54;;;;;;;1999.90;813.80;;;12.70;99.90;;;;;;5129519;27;20046;-83
2021/12/31 01:38:20;;;;;;;1999.90;922.28;;;14.40;99.90;;;;;;5125103;27;20050;-80
2021/12/31 01:40:47;;;;;;;1999.90;941.00;;;14.30;99.90;;;;;;5122683;27;20074;-80
2021/12/31 01:43:13;;;;;;;1999.90;999.90;;;14.20;99.90;;;;;;5127867;27;20510;-80
2021/12/31 01:45:44;;;;;;;1999.90;891.55;;;12.60;99.90;;;;;;5125784;27;20071;-80
2021/12/31 01:48:23;;;;;;;1999.90;836.78;;;12.70;99.90;;;;;;5129742;27;20053;-82
2021/12/31 01:50:51;;;;;;;1999.90;877.85;;;13.90;99.90;;;;;;5126298;27;20051;-80
2021/12/31 01:53:18;;;;;;;1999.90;759.05;;;13.00;99.90;;;;;;5112511;27;20440;-81
2021/12/31 01:55:45;;;;;;;1999.90;918.80;;;12.50;99.90;;;;;;5124081;27;20528;-87
2021/12/31 01:58:11;;;;;;;1999.90;804.13;;;12.70;99.90;;;;;;5126355;27;20104;-81
2021/12/31 02:00:38;;;;;;;1999.90;641.78;;;13.80;99.90;;;;;;5127218;27;20127;-81
2021/12/31 02:03:05;;;;;;;1999.90;879.33;;;12.60;99.90;;;;;;5128694;27;20408;-80
2021/12/31 02:05:31;;;;;;;1999.90;999.90;;;13.60;99.90;;;;;;5126746;27;20114;-80
2021/12/31 02:08:00;;;;;;;1999.90;932.13;;;13.10;99.90;;;;;;5127542;27;20368;-82
2021/12/31 02:10:26;;;;;;;1999.90;999.90;;;14.20;99.90;;;;;;5123246;27;20047;-83
2021/12/31 02:12:53;;;;;;;1999.90;960.13;;;13.10;99.90;;;;;;5127466;27;20054;-83
2021/12/31 02:15:19;;;;;;;1999.90;927.85;;;13.20;99.90;;;;;;5126005;27;20035;-81
2021/12/31 02:17:47;;;;;;;1999.90;797.47;;;13.20;99.90;;;;;;5122582;27;20076;-80
2021/12/31 02:20:14;;;;;;;;;;;14.00;99.90;;;;;;5120585;27;20391;-81
2021/12/31 02:22:49;;;;;;;1999.90;781.10;;;13.40;99.90;;;;;;5118182;27;19966;-82
2021/12/31 02:25:15;;;;;;;1999.90;999.90;;;12.70;99.90;;;;;;5112969;27;20066;-81
2021/12/31 02:27:41;;;;;;;1999.90;788.92;;;14.90;99.90;;;;;;5128446;27;20050;-81
2021/12/31 02:30:09;;;;;;;1999.90;796.33;;;13.30;99.90;;;;;;5128385;27;20127;-83
2021/12/31 02:32:35;;;;;;;1999.90;846.85;;;13.50;99.90;;;;;;5125231;27;20054;-82
2021/12/31 02:35:01;;;;;;;1999.90;934.92;;;14.40;99.90;;;;;;5123380;27;20042;-81
2021/12/31 02:37:28;;;;;;;1999.90;580.13;;;13.40;99.90;;;;;;5119371;27;20125;-83
2021/12/31 02:39:55;;;;;;;1999.90;626.70;;;14.50;99.90;;;;;;5120563;27;20121;-80
2021/12/31 02:42:20;;;;;;;1999.90;916.95;;;14.60;99.90;;;;;;5122309;28;20123;-82
2021/12/31 02:44:46;;;;;;;1999.90;999.90;;;12.80;99.90;;;;;;5102468;28;20189;-81
2021/12/31 02:47:12;;;;;;;1999.90;955.75;;;14.20;99.90;;;;;;5121220;28;20394;-80
2021/12/31 02:49:41;;;;;;;1999.90;795.72;;;14.30;99.90;;;;;;5131468;28;20035;-81
2021/12/31 02:52:10;;;;;;;1999.90;647.55;;;12.80;99.90;;;;;;5126567;27;20040;-81
2021/12/31 02:54:39;;;;;;;1999.90;999.90;;;13.80;99.90;;;;;;5141472;27;20406;-81
2021/12/31 02:57:06;;;;;;;1999.90;883.63;;;13.10;99.90;;;;;;5127241;28;20514;-79
2021/12/31 02:59:34;;;;;;;1999.90;872.97;;;12.90;99.90;;;;;;5127617;28;20038;-81
2021/12/31 03:02:00;;;;;;;1999.90;731.83;;;14.70;99.90;;;;;;5125303;28;20050;-80
2021/12/31 03:04:28;;;;;;;1999.90;888.33;;;13.30;99.90;;;;;;5123756;28;20130;-80
2021/12/31 03:06:56;;;;;;;1999.90;805.17;;;14.20;99.90;;;;;;5121269;28;20043;-82
2021/12/31 03:09:24;;;;;;;1999.90;855.10;;;14.30;99.90;;;;;;5124143;28;20071;-81
2021/12/31 03:11:56;;;;;;;1999.90;695.22;;;15.50;99.90;;;;;;5128771;28;20046;-81
2021/12/31 03:14:23;;;;;;;1999.90;999.90;;;13.00;99.90;;;;;;5123709;28;20043;-81
2021/12/31 03:16:50;;;;;;;1999.90;926.00;;;13.30;99.90;;;;;;5125222;28;20043;-81
2021/12/31 03:19:16;;;;;;;1999.90;695.53;;;13.20;99.90;;;;;;5127276;28;20055;-80
2021/12/31 03:21:42;;;;;;;1999.90;999.90;;;14.00;99.90;;;;;;5106117;28;20051;-80
2021/12/31 03:24:08;;;;;;;1829.22;783.40;;;13.40;99.90;;;;;;5123611;27;20050;-80
2021/12/31 03:26:34;;;;;;;1972.53;608.00;;;13.30;99.90;;;;;;5125972;28;20380;-81
2021/12/31 03:29:01;;;;;;;1999.90;999.90;;;14.90;99.90;;;;;;5124560;28;20506;-81
2021/12/31 03:31:27;;;;;;;1999.90;189.13;;;12.90;99.90;;;;;;5125958;27;20123;-81
2021/12/31 03:33:53;;;;;;;1999.90;999.90;;;14.40;99.90;;;;;;5131317;28;20050;-83
2021/12/31 03:36:19;;;;;;;1999.90;999.90;;;13.70;99.90;;;;;;5124657;28;20051;-80
2021/12/31 03:38:45;;;;;;;1999.90;999.90;;;13.70;99.90;;;;;;5129852;28;20047;-79
2021/12/31 03:41:11;;;;;;;1999.90;723.53;;;13.00;99.90;;;;;;5125627;28;20376;-79
2021/12/31 03:43:37;;;;;;;1999.90;999.90;;;13.50;99.90;;;;;;5130487;27;20059;-80
2021/12/31 03:46:02;;;;;;;1999.90;999.90;;;14.50;99.90;;;;;;5129113;28;20140;-81
2021/12/31 03:48:28;;;;;;;1999.90;999.90;;;14.90;99.90;;;;;;5128834;27;20405;-78
2021/12/31 03:50:54;;;;;;;1999.90;999.90;;;12.90;99.90;;;;;;5147725;27;20232;-84
2021/12/31 03:53:20;;;;;;;1999.90;999.90;;;14.90;99.90;;;;;;5131602;27;20416;-83
2021/12/31 03:55:47;;;;;;;1865.38;467.58;;;13.00;99.90;;;;;;5128986;27;20043;-79
2021/12/31 03:58:13;;;;;;;1999.90;999.90;;;13.00;99.90;;;;;;5130548;27;20039;-80
2021/12/31 04:00:39;;;;;;;1999.90;999.90;;;13.50;99.90;;;;;;5114456;27;20107;-80
2021/12/31 04:03:10;;;;;;;1999.90;999.90;;;13.20;99.90;;;;;;5124916;27;20047;-79
2021/12/31 04:05:38;;;;;;;1999.90;999.90;;;12.90;99.90;;;;;;5105597;27;20074;-80
2021/12/31 04:08:05;;;;;;;1999.90;999.90;;;12.90;99.90;;;;;;5124852;27;20416;-82
2021/12/31 04:10:31;;;;;;;1999.90;999.90;;;13.90;99.90;;;;;;5141281;27;20112;-85
2021/12/31 04:12:56;;;;;;;1988.90;657.65;;;15.00;99.90;;;;;;5130911;27;20047;-85
2021/12/31 04:15:22;;;;;;;1999.90;999.90;;;14.00;99.90;;;;;;5129360;27;20122;-79
2021/12/31 04:17:48;;;;;;;1999.90;999.90;;;14.80;99.90;;;;;;5127178;27;20067;-82
2021/12/31 04:20:32;;;;;;;1999.90;999.90;;;14.90;99.90;;;;;;5130772;27;20055;-81
2021/12/31 04:22:59;;;;;;;1999.90;713.83;;;13.10;99.90;;;;;;5147344;27;20400;-83
2021/12/31 04:25:24;;;;;;;1999.90;999.90;;;14.20;99.90;;;;;;5130761;27;20469;-81
2021/12/31 04:27:51;;;;;;;1999.90;566.95;;;13.00;99.90;;;;;;5130813;27;20043;-80
2021/12/31 04:30:17;;;;;;;1999.90;999.90;;;14.40;99.90;;;;;;5129204;27;20043;-82
2021/12/31 04:32:43;;;;;;;1999.90;999.90;;;14.00;99.90;;;;;;5129819;27;20047;-84
2021/12/31 04:35:11;;;;;;;1999.90;999.90;;;15.60;99.90;;;;;;5129460;27;20085;-79
2021/12/31 04:37:39;;;;;;;1999.90;999.90;;;14.80;99.90;;;;;;5127922;27;20139;-81
2021/12/31 04:40:07;;;;;;;;;;;13.70;99.90;;;;;;5125664;27;20606;-81
2021/12/31 04:42:32;;;;;;;1999.90;999.90;;;14.80;99.90;;;;;;5128520;27;19949;-85
2021/12/31 04:44:58;;;;;;;1999.90;999.90;;;14.30;99.90;;;;;;5121880;27;20081;-88
2021/12/31 04:47:24;;;;;;;1999.90;999.90;;;14.80;99.90;;;;;;5122433;27;20742;-81
2021/12/31 04:49:49;;;;;;;1999.90;999.90;;;14.50;99.90;;;;;;5122143;27;20440;-80
2021/12/31 04:52:15;;;;;;;1999.90;999.90;;;12.80;99.90;;;;;;5121443;27;20126;-80
2021/12/31 04:54:41;;;;;;;1999.90;999.90;;;13.30;99.90;;;;;;5128582;27;20043;-80
2021/12/31 04:57:07;;;;;;;1999.90;999.90;;;14.10;99.90;;;;;;5128163;27;20035;-79
2021/12/31 04:59:32;;;;;;;1999.90;999.90;;;14.40;99.90;;;;;;5113623;27;20099;-81
2021/12/31 05:01:58;;;;;;;1999.90;999.90;;;12.90;99.90;;;;;;5129660;27;20131;-80
2021/12/31 05:04:24;;;;;;;1999.90;999.90;;;13.40;99.90;;;;;;5130901;27;20176;-81
2021/12/31 05:06:50;;;;;;;1899.93;560.35;;;13.10;99.90;;;;;;5123599;27;20149;-83
2021/12/31 05:09:16;;;;;;;1735.28;537.95;;;13.40;99.90;;;;;;5128951;27;20039;-82
2021/12/31 05:11:42;;;;;;;1999.90;999.90;;;13.50;99.90;;;;;;5128145;27;20133;-81
2021/12/31 05:14:08;;;;;;;1999.90;999.90;;;13.70;99.90;;;;;;5130076;27;20039;-82
2021/12/31 05:16:35;;;;;;;1574.68;636.30;;;13.70;99.90;;;;;;5111393;27;20487;-80
2021/12/31 05:19:04;;;;;;;1999.90;999.90;;;14.40;99.90;;;;;;5130445;27;20091;-81
2021/12/31 05:21:31;;;;;;;1999.90;337.08;;;12.80;99.90;;;;;;5130904;27;20043;-79
2021/12/31 05:23:58;;;;;;;1999.90;373.40;;;13.10;99.90;;;;;;5128323;27;20192;-80
2021/12/31 05:26:24;;;;;;;1999.90;999.90;;;15.00;99.90;;;;;;5127284;27;20122;-79
2021/12/31 05:28:50;;;;;;;1999.90;999.90;;;14.40;99.90;;;;;;5123676;27;20073;-80
2021/12/31 05:31:16;;;;;;;1920.22;785.05;;;12.80;99.90;;;;;;5130578;27;20355;-80
2021/12/31 05:33:42;;;;;;;1999.90;999.90;;;15.00;99.90;;;;;;5129973;27;20095;-80
2021/12/31 05:36:08;;;;;;;1999.90;615.08;;;13.30;99.90;;;;;;5100037;27;20047;-81
2021/12/31 05:38:34;;;;;;;1999.90;427.88;;;14.20;99.90;;;;;;5129362;27;20061;-81
2021/12/31 05:41:00;;;;;;;1999.90;999.90;;;12.70;99.90;;;;;;5129655;27;20055;-80
2021/12/31 05:43:26;;;;;;;1999.90;999.90;;;14.80;99.90;;;;;;5125531;27;20050;-84
2021/12/31 05:45:52;;;;;;;1999.90;999.90;;;15.10;99.90;;;;;;5106871;27;20050;-81
2021/12/31 05:48:17;;;;;;;1999.90;999.90;;;13.00;99.90;;;;;;5123012;27;20077;-81
2021/12/31 05:50:43;;;;;;;1929.68;797.85;;;15.00;99.90;;;;;;5126692;27;20144;-83
2021/12/31 05:53:09;;;;;;;1871.50;774.83;;;12.70;99.90;;;;;;5110317;27;20520;-82
2021/12/31 05:55:34;;;;;;;1999.90;999.90;;;13.40;99.90;;;;;;5127330;27;20530;-80
2021/12/31 05:58:02;;;;;;;1949.70;790.70;;;14.90;99.90;;;;;;5129583;27;20043;-81
2021/12/31 06:00:28;;;;;;;1999.90;999.90;;;12.90;99.90;;;;;;5129311;27;20043;-80
2021/12/31 06:02:55;;;;;;;1999.90;999.90;;;13.30;99.90;;;;;;5129179;27;20126;-80
2021/12/31 06:05:23;;;;;;;1381.03;213.85;;;13.50;99.90;;;;;;5127878;27;20506;-82
2021/12/31 06:07:49;;;;;;;1999.90;999.90;;;15.10;99.90;;;;;;5127291;27;20051;-80
2021/12/31 06:10:15;;;;;;;1999.90;999.90;;;13.50;99.90;;;;;;5127787;27;20078;-82
2021/12/31 06:12:43;;;;;;;1999.90;999.90;;;12.90;99.90;;;;;;5127064;27;20468;-82
2021/12/31 06:15:09;;;;;;;1999.90;999.90;;;14.90;99.90;;;;;;5119983;27;20051;-81
2021/12/31 06:17:36;;;;;;;1999.90;999.90;;;13.70;99.90;;;;;;5128005;27;20538;-81
2021/12/31 06:20:04;;;;;;;1864.88;789.58;;;14.50;99.90;;;;;;5100593;28;20095;-82
2021/12/31 06:22:31;;;;;;;;;;;14.90;99.90;;;;;;5086811;28;20508;-82
2021/12/31 06:24:57;;;;;;;1999.90;999.90;;;12.90;99.90;;;;;;5078678;28;20300;-81
2021/12/31 06:27:23;;;;;;;1999.90;999.90;;;12.70;99.90;;;;;;5087428;28;20066;-80
2021/12/31 06:29:49;;;;;;;1765.88;331.75;;;13.70;99.90;;;;;;5088733;28;20068;-81
2021/12/31 06:32:14;;;;;;;1999.90;999.90;;;12.90;99.90;;;;;;5084251;28;20059;-81
2021/12/31 06:34:40;;;;;;;1999.90;561.40;;;15.30;99.90;;;;;;5090069;28;20082;-83
2021/12/31 06:37:06;;;;;;;1999.90;999.90;;;13.70;99.90;;;;;;5086961;28;20047;-84
2021/12/31 06:39:32;;;;;;;1999.90;999.90;;;12.80;99.90;;;;;;5089317;28;20230;-82
2021/12/31 06:41:59;;;;;;;1999.90;999.90;;;14.50;99.90;;;;;;5090119;28;20046;-81
2021/12/31 06:44:25;;;;;;;1999.90;526.92;;;13.60;99.90;;;;;;5090325;28;20056;-81
2021/12/31 06:46:51;;;;;;;1551.07;731.20;;;14.50;99.90;;;;;;5088046;28;20097;-81
2021/12/31 06:49:16;;;;;;;1999.90;999.90;;;14.00;99.90;;;;;;5087412;28;20391;-84
2021/12/31 06:51:42;;;;;;;1293.57;560.35;;;14.80;99.90;;;;;;5086033;28;20052;-82
2021/12/31 06:54:08;;;;;;;1999.90;999.90;;;14.90;99.90;;;;;;5090162;28;20040;-82
2021/12/31 06:56:33;;;;;;;1999.90;756.90;;;14.60;99.90;;;;;;5087576;28;20039;-80
2021/12/31 06:58:59;;;;;;;1641.20;652.47;;;13.00;99.90;;;;;;5087108;28;20135;-81
2021/12/31 07:01:25;;;;;;;1999.90;999.90;;;14.10;99.90;;;;;;5086819;28;20400;-82
2021/12/31 07:03:50;;;;;;;1999.90;999.90;;;12.90;99.90;;;;;;5119265;28;20112;-84
2021/12/31 07:06:16;;;;;;;1999.90;999.90;;;13.50;99.90;;;;;;5081438;28;20509;-81
2021/12/31 07:08:42;;;;;;;1999.90;888.33;;;14.60;99.90;;;;;;5090036;28;20036;-82
2021/12/31 07:11:07;;;;;;;1085.85;744.42;;;13.90;99.90;;;;;;5089103;28;20052;-81
2021/12/31 07:13:35;;;;;;;1999.90;999.90;;;12.50;99.90;;;;;;5089619;28;20041;-82
2021/12/31 07:16:01;;;;;;;;;;;14.50;99.90;;;;;;5071026;28;20044;-81
2021/12/31 07:18:27;;;;;;;1999.90;999.90;;;12.50;99.90;;;;;;5087621;28;19920;-80
2021/12/31 07:20:52;;;;;;;1337.47;759.78;;;13.60;99.90;;;;;;5087052;28;20182;-81
2021/12/31 07:23:21;;;;;;;1999.90;999.90;;;14.30;99.90;;;;;;5090112;28;20060;-79
2021/12/31 07:25:47;;;;;;;1816.65;762.03;;;14.20;99.90;;;;;;5094138;28;20057;-81
2021/12/31 07:28:14;;;;;;;1824.03;838.75;;;14.00;99.90;;;;;;5092055;28;20040;-81
2021/12/31 07:30:40;;;;;;;1709.10;826.72;;;12.80;99.90;;;;;;5088438;28;20040;-82
2021/12/31 07:33:17;;;;;;;1999.90;999.90;;;14.30;99.90;;;;;;5088884;28;20048;-82
2021/12/31 07:35:43;;;;;;;1728.97;739.05;;;13.20;99.90;;;;;;5090760;28;20051;-83
2021/12/31 07:38:17;;;;;;;1999.90;999.90;;;12.50;99.90;;;;;;5081059;28;20086;-84
2021/12/31 07:40:44;;;;;;;1999.90;999.90;;;13.10;99.90;;;;;;5092787;28;20044;-82
2021/12/31 07:43:11;;;;;;;1999.90;999.90;;;12.80;99.90;;;;;;5072938;28;20445;-83
2021/12/31 07:45:37;;;;;;;945.58;516.08;;;14.30;99.90;;;;;;5091394;28;20487;-82
2021/12/31 07:48:03;;;;;;;1033.10;780.78;;;12.60;99.90;;;;;;5091168;28;20399;-83
2021/12/31 07:50:29;;;;;;;1999.90;999.90;;;13.30;99.90;;;;;;5091887;28;20155;-82
2021/12/31 07:52:56;;;;;;;1999.90;999.90;;;14.10;99.90;;;;;;5091157;28;20075;-83
2021/12/31 07:55:21;;;;;;;1464.18;743.40;;;12.40;99.90;;;;;;5093783;28;20070;-82
2021/12/31 07:57:47;;;;;;;1479.28;877.08;;;12.30;99.90;;;;;;5120993;27;20490;-83
2021/12/31 08:00:13;;;;;;;1999.90;738.65;;;13.00;99.90;;;;;;5088501;28;20044;-82
2021/12/31 08:02:39;;;;;;;1788.07;790.83;;;12.90;99.90;;;;;;5089406;28;20384;-82
2021/12/31 08:05:05;;;;;;;1757.97;789.40;;;13.40;99.90;;;;;;5087156;28;20058;-82
2021/12/31 08:07:31;;;;;;;1409.63;889.78;;;14.30;99.90;;;;;;5089867;28;20093;-82
2021/12/31 08:09:57;;;;;;;1844.18;877.40;;;12.40;99.90;;;;;;5082680;28;20447;-82
2021/12/31 08:12:22;;;;;;;1999.90;999.90;;;13.30;99.90;;;;;;5082958;28;20043;-82
2021/12/31 08:14:49;;;;;;;1999.90;999.90;;;12.50;99.90;;;;;;5093134;28;20540;-82
2021/12/31 08:17:14;;;;;;;1999.90;999.90;;;13.70;99.90;;;;;;5091613;28;20039;-83
2021/12/31 08:19:41;;;;;;;1249.57;771.40;;;14.10;99.90;;;;;;5091234;28;20032;-83
2021/12/31 08:22:08;;;;;;;1825.63;933.13;;;12.60;99.90;;;;;;5128128;27;20066;-83
2021/12/31 08:24:34;;;;;;;1999.90;696.60;;;14.40;99.90;;;;;;5113301;27;20054;-85
2021/12/31 08:27:00;;;;;;;1759.25;807.33;;;13.80;99.90;;;;;;5132138;27;20047;-83
2021/12/31 08:29:26;;;;;;;1999.90;716.28;;;12.60;99.90;;;;;;5133671;27;20046;-81
2021/12/31 08:31:51;;;;;;;1759.78;876.15;;;13.40;99.90;;;;;;5131526;27;20039;-82
2021/12/31 08:34:17;;;;;;;1999.90;999.90;;;13.90;99.90;;;;;;5131761;27;20043;-84
2021/12/31 08:36:43;;;;;;;1999.90;999.90;;;15.70;99.90;;;;;;5111914;27;20046;-82
2021/12/31 08:39:10;;;;;;;1999.90;999.90;;;14.60;99.90;;;;;;5136382;27;20040;-80
2021/12/31 08:41:36;;;;;;;1591.80;663.75;;;14.60;99.90;;;;;;5132302;27;20149;-83
2021/12/31 08:44:03;;;;;;;1467.63;904.37;;;13.40;99.90;;;;;;5132741;27;20050;-83
2021/12/31 08:46:28;;;;;;;1999.90;381.52;;;12.80;99.90;;;;;;5131930;27;20047;-86
2021/12/31 08:48:55;;;;;;;1999.90;999.90;;;12.70;99.90;;;;;;5130846;27;20057;-82
2021/12/31 08:51:20;;;;;;;1999.90;999.90;;;14.20;99.90;;;;;;5131513;27;20070;-82
2021/12/31 08:53:46;;;;;;;1999.90;999.90;;;14.60;99.90;;;;;;5132522;27;20136;-82
2021/12/31 08:56:12;;;;;;;1999.90;999.90;;;13.10;99.90;;;;;;5129854;27;20126;-82
2021/12/31 08:58:37;;;;;;;1999.90;999.90;;;13.10;99.90;;;;;;5131244;27;20468;-82
2021/12/31 09:01:03;;;;;;;1831.93;943.25;;;13.30;99.90;;;;;;5132965;27;20047;-82
2021/12/31 09:03:29;;;;;;;1999.90;999.90;;;13.40;99.90;;;;;;5132583;27;20043;-80
2021/12/31 09:05:54;;;;;;;1999.90;798.85;;;14.50;99.90;;;;;;5130607;27;20046;-84
2021/12/31 09:08:21;;;;;;;1460.43;927.58;;;15.00;99.90;;;;;;5124062;27;20035;-80
2021/12/31 09:10:46;;;;;;;1999.90;999.90;;;13.90;99.90;;;;;;5131214;27;20556;-82
2021/12/31 09:13:12;;;;;;;1999.90;999.90;;;14.70;99.90;;;;;;5125026;27;20035;-79
2021/12/31 09:15:37;;;;;;;1717.93;842.78;;;14.00;99.90;;;;;;5128317;27;20047;-80
2021/12/31 09:18:03;;;;;;;1451.25;733.30;;;12.60;99.90;;;;;;5131210;27;20395;-80
2021/12/31 09:20:29;;;;;;;1443.88;783.92;;;13.70;99.90;;;;;;5130922;27;20055;-79
2021/12/31 09:22:55;;;;;;;1999.90;999.90;;;14.50;99.90;;;;;;5130246;27;20071;-80
2021/12/31 09:25:21;;;;;;;1999.90;999.90;;;14.60;99.90;;;;;;5132564;27;20102;-80
2021/12/31 09:27:47;;;;;;;1860.18;802.08;;;14.40;99.90;;;;;;5130951;27;20043;-80
2021/12/31 09:30:13;;;;;;;1810.65;829.95;;;16.30;99.90;;;;;;5111690;27;20047;-81
2021/12/31 09:32:39;;;;;;;1999.90;999.90;;;14.80;99.90;;;;;;5130033;27;20035;-81
2021/12/31 09:35:06;;;;;;;1999.90;999.90;;;12.50;99.90;;;;;;5147780;27;20421;-81
2021/12/31 09:37:32;;;;;;;1999.90;999.90;;;12.50;99.90;;;;;;5130511;27;20517;-82
2021/12/31 09:39:58;;;;;;;1222.20;692.60;;;12.50;99.90;;;;;;5132492;27;20490;-82
2021/12/31 09:42:24;;;;;;;1999.90;999.90;;;13.40;99.90;;;;;;5132224;27;20489;-82
2021/12/31 09:44:50;;;;;;;1770.10;797.78;;;15.20;99.90;;;;;;5132203;27;20079;-80
2021/12/31 09:47:18;;;;;;;1999.90;999.90;;;14.50;99.90;;;;;;5130125;27;20051;-82
2021/12/31 09:49:45;;;;;;;1999.90;999.90;;;14.70;99.90;;;;;;5117041;27;20192;-81
2021/12/31 09:52:13;;;;;;;1999.90;999.90;;;14.70;99.90;;;;;;5130393;27;20122;-82
2021/12/31 09:54:44;;;;;;;1867.85;886.10;;;13.90;99.90;;;;;;5131112;27;20043;-79
2021/12/31 09:57:21;;;;;;;1999.90;999.90;;;14.70;99.90;;;;;;5129425;27;20050;-79
2021/12/31 09:59:47;;;;;;;1999.90;999.90;;;14.80;99.90;;;;;;5110451;27;20035;-79
2021/12/31 10:02:15;;;;;;;1830.03;716.20;;;14.40;99.90;;;;;;5130722;27;20567;-80
2021/12/31 10:04:51;;;;;;;1918.10;860.38;;;12.80;99.90;;;;;;5130881;27;20043;-80
2021/12/31 10:07:20;;;;;;;1999.90;999.90;;;13.10;99.90;;;;;;5126463;27;20043;-80
2021/12/31 10:10:03;;;;;;;1768.82;758.92;;;12.70;99.90;;;;;;5143475;27;20061;-81
2021/12/31 10:12:56;;;;;;;1384.28;736.22;;;14.20;99.90;;;;;;5115184;27;20041;-79
2021/12/31 10:15:26;;;;;;;1999.90;999.90;;;14.00;99.90;;;;;;5129836;27;20058;-80
2021/12/31 10:17:53;;;;;;;1999.90;999.90;;;12.80;99.90;;;;;;5130286;27;20055;-80
2021/12/31 10:20:21;;;;;;;1999.90;999.90;;;12.80;99.90;;;;;;5147094;27;20050;-81
2021/12/31 10:22:47;;;;;;;1999.90;999.90;;;14.10;99.90;;;;;;5129041;27;20051;-79
2021/12/31 10:25:18;;;;;;;1999.90;999.90;;;13.10;99.90;;;;;;5131008;27;20099;-79
2021/12/31 10:27:44;;;;;;;1999.90;999.90;;;14.50;99.90;;;;;;5129585;27;20054;-81
2021/12/31 10:30:10;;;;;;;1149.55;513.38;;;13.40;99.90;;;;;;5129239;27;20043;-81
2021/12/31 10:32:40;;;;;;;1450.50;793.30;;;13.20;99.90;;;;;;5129750;27;20075;-81
2021/12/31 10:35:21;;;;;;;1249.07;623.60;;;13.00;99.90;;;;;;5131378;27;20086;-80
2021/12/31 10:37:57;;;;;;;1824.03;795.72;;;13.70;99.90;;;;;;5128272;27;20057;-80
2021/12/31 10:40:49;;;;;;;1999.90;999.90;;;13.00;99.90;;;;;;5111683;28;20501;-79
2021/12/31 10:43:25;;;;;;;1999.90;999.90;;;12.70;99.90;;;;;;5118312;27;20097;-80
2021/12/31 10:46:00;;;;;;;1999.90;999.90;;;12.80;99.90;;;;;;5106968;27;20047;-80
2021/12/31 10:48:50;;;;;;;1491.35;710.92;;;14.70;99.90;;;;;;5130173;27;20041;-79
2021/12/31 10:51:17;;;;;;;1999.90;999.90;;;14.70;99.90;;;;;;5122937;27;20499;-79
2021/12/31 10:53:50;;;;;;;1999.90;999.90;;;13.50;99.90;;;;;;5130200;28;20122;-80
2021/12/31 10:56:16;;;;;;;1999.90;999.90;;;14.60;99.90;;;;;;5126395;27;20135;-79
2021/12/31 10:58:45;;;;;;;1999.90;999.90;;;13.90;99.90;;;;;;5128874;27;20521;-80
2021/12/31 11:01:15;;;;;;;1999.90;609.13;;;14.80;99.90;;;;;;5131754;27;20079;-80
2021/12/31 11:03:42;;;;;;;1529.45;867.38;;;12.90;99.90;;;;;;5115233;27;20082;-78
2021/12/31 11:06:13;;;;;;;1999.90;999.90;;;12.70;99.90;;;;;;5114487;27;20039;-80
2021/12/31 11:08:45;;;;;;;1999.90;999.90;;;13.20;99.90;;;;;;5115770;27;20035;-84
2021/12/31 11:11:16;;;;;;;1999.90;999.90;;;14.40;99.90;;;;;;5134076;27;20042;-81
2021/12/31 11:13:44;;;;;;;1999.90;999.90;;;14.40;99.90;;;;;;5133856;27;20081;-78
2021/12/31 11:16:10;;;;;;;1999.90;999.90;;;13.50;99.90;;;;;;5133722;27;20039;-80
2021/12/31 11:18:39;;;;;;;1694.10;778.30;;;14.10;99.90;;;;;;5134155;27;20047;-79
2021/12/31 11:21:08;;;;;;;1999.90;999.90;;;13.80;99.90;;;;;;5131467;27;20136;-78
2021/12/31 11:23:34;;;;;;;1999.90;999.90;;;13.40;99.90;;;;;;5130648;27;20150;-78
2021/12/31 11:26:04;;;;;;;1662.85;776.88;;;13.20;99.90;;;;;;5114280;27;20150;-79
2021/12/31 11:28:33;;;;;;;776.17;488.90;;;14.70;99.90;;;;;;5132730;27;20043;-79
2021/12/31 11:31:17;;;;;;;1999.90;999.90;;;14.70;99.90;;;;;;5133837;27;20117;-79
2021/12/31 11:33:44;;;;;;;1999.90;999.90;;;15.50;99.90;;;;;;5132315;27;20127;-80
2021/12/31 11:36:11;;;;;;;1999.90;999.90;;;14.70;99.90;;;;;;5132146;27;20047;-80
2021/12/31 11:38:42;;;;;;;1999.90;999.90;;;13.30;99.90;;;;;;5131441;27;20136;-80
2021/12/31 11:41:11;;;;;;;1084.57;707.58;;;13.50;99.90;;;;;;5119280;27;20043;-78
2021/12/31 11:43:45;;;;;;;1999.90;999.90;;;13.20;99.90;;;;;;5140918;27;20085;-79
2021/12/31 11:46:21;;;;;;;1999.90;999.90;;;13.60;99.90;;;;;;5134154;27;20549;-79
2021/12/31 11:48:52;;;;;;;1455.35;664.88;;;13.20;99.90;;;;;;5126261;27;20515;-79
2021/12/31 11:51:17;;;;;;;1999.90;999.90;;;14.70;99.90;;;;;;5130597;27;20052;-79
2021/12/31 11:53:58;;;;;;;1999.90;999.90;;;13.40;99.90;;;;;;5124786;27;20428;-81
2021/12/31 11:56:35;;;;;;;1999.90;999.90;;;14.90;99.90;;;;;;5134858;27;20051;-79
2021/12/31 11:59:07;;;;;;;1999.90;999.90;;;14.80;99.90;;;;;;5113189;27;20410;-79
2021/12/31 12:01:47;;;;;;;1999.90;999.90;;;13.30;99.90;;;;;;5132563;27;20141;-79